Time;durP1;ratioP1;P1;durP2;ratioP2;P2;SDS_P1;SDS_P2;PMS_P1;PMS_P2;Temp;Humidity;BMP_temperature;BMP_pressure;BME280_temperature;BME280_humidity;BME280_pressure;Samples;Min_cycle;Max_cycle;Signal;HPM_P1;HPM_P2
2024/01/29 00:02:09;;;;;;;34.70;19.10;;;;;;;2.68;98.84;101075.31;108028;1306;22168;-45
2024/01/29 00:04:34;;;;;;;40.40;21.30;;;;;;;2.63;98.82;101079.27;108040;1306;22223;-46
2024/01/29 00:07:00;;;;;;;39.30;19.60;;;;;;;2.64;98.84;101078.77;108036;1289;22208;-46
2024/01/29 00:09:25;;;;;;;40.90;21.10;;;;;;;2.63;98.74;101079.96;108027;1306;22583;-46
2024/01/29 00:11:50;;;;;;;39.60;20.30;;;;;;;2.61;98.72;101083.92;108014;1306;22384;-47
2024/01/29 00:14:15;;;;;;;38.60;19.50;;;;;;;2.60;98.73;101083.23;108025;1306;22404;-48
2024/01/29 00:16:41;;;;;;;37.50;20.40;;;;;;;2.60;98.77;101078.04;108017;1306;23240;-46
2024/01/29 00:19:06;;;;;;;39.90;20.10;;;;;;;2.57;98.84;101072.13;108009;1288;22936;-45
2024/01/29 00:21:31;;;;;;;41.20;19.60;;;;;;;2.56;98.73;101069.52;108016;1288;22408;-44
2024/01/29 00:24:00;;;;;;;40.80;19.50;;;;;;;2.56;98.71;101070.58;108018;1288;22226;-48
2024/01/29 00:26:25;;;;;;;39.10;20.60;;;;;;;2.55;98.69;101069.88;108000;1306;22318;-45
2024/01/29 00:28:51;;;;;;;45.00;21.30;;;;;;;2.55;98.51;101063.64;108009;1306;22235;-46
2024/01/29 00:31:16;;;;;;;42.10;20.60;;;;;;;2.55;98.42;101055.33;107986;1306;22240;-46
2024/01/29 00:33:42;;;;;;;47.00;21.80;;;;;;;2.55;98.19;101060.86;108002;1306;22398;-47
2024/01/29 00:36:07;;;;;;;38.80;19.60;;;;;;;2.51;98.06;101059.45;108031;1306;22284;-44
2024/01/29 00:38:32;;;;;;;46.90;19.60;;;;;;;2.51;98.37;101057.38;108007;1306;22188;-45
2024/01/29 00:40:57;;;;;;;41.50;20.00;;;;;;;2.50;98.19;101056.86;108023;1287;23254;-46
2024/01/29 00:43:23;;;;;;;43.90;19.10;;;;;;;2.50;98.14;101062.58;108025;1298;22319;-46
2024/01/29 00:45:48;;;;;;;40.60;18.60;;;;;;;2.50;98.18;101067.76;108034;1285;22382;-48
2024/01/29 00:48:13;;;;;;;36.30;18.60;;;;;;;2.51;98.19;101065.88;108018;1306;23189;-47
2024/01/29 00:50:39;;;;;;;33.00;17.20;;;;;;;2.51;97.89;101065.35;108006;1306;22247;-47
2024/01/29 00:53:05;;;;;;;36.70;18.00;;;;;;;2.49;97.63;101064.48;108024;1288;23088;-48
2024/01/29 00:55:31;;;;;;;39.60;17.40;;;;;;;2.46;97.17;101065.48;108031;1288;22265;-49
2024/01/29 00:57:56;;;;;;;38.50;18.30;;;;;;;2.42;96.98;101059.73;108004;1306;22270;-50
2024/01/29 01:00:21;;;;;;;34.20;17.80;;;;;;;2.44;97.08;101060.80;108044;1286;22252;-48
2024/01/29 01:02:46;;;;;;;39.70;18.70;;;;;;;2.46;97.11;101065.31;108020;1306;22226;-46
2024/01/29 01:05:12;;;;;;;33.80;16.40;;;;;;;2.45;97.06;101066.00;108017;1306;22188;-48
2024/01/29 01:07:37;;;;;;;36.90;17.40;;;;;;;2.42;96.92;101062.00;108028;1306;22277;-46
2024/01/29 01:10:03;;;;;;;30.70;15.40;;;;;;;2.41;96.87;101062.16;108039;1306;22264;-48
2024/01/29 01:12:29;;;;;;;33.70;17.60;;;;;;;2.37;96.80;101064.20;108023;1288;22247;-46
2024/01/29 01:14:54;;;;;;;34.30;17.00;;;;;;;2.36;96.97;101070.27;108017;1307;23016;-47
2024/01/29 01:17:19;;;;;;;29.60;17.00;;;;;;;2.35;97.05;101066.80;108042;1285;22222;-48
2024/01/29 01:19:44;;;;;;;32.80;16.30;;;;;;;2.33;96.92;101062.63;108018;1288;22382;-48
2024/01/29 01:22:10;;;;;;;33.80;16.80;;;;;;;2.33;97.01;101064.52;107786;1307;22416;-49
2024/01/29 01:24:35;;;;;;;34.70;15.70;;;;;;;2.33;97.08;101061.92;108015;1285;22191;-47
2024/01/29 01:27:00;;;;;;;30.50;17.10;;;;;;;2.31;96.96;101063.48;108028;1287;23640;-51
2024/01/29 01:29:26;;;;;;;31.80;16.00;;;;;;;2.30;97.10;101061.74;108001;1307;22177;-49
2024/01/29 01:31:51;;;;;;;33.10;16.40;;;;;;;2.28;96.82;101063.48;108016;1295;22238;-46
2024/01/29 01:34:16;;;;;;;35.20;17.10;;;;;;;2.24;96.88;101066.90;108045;1292;23218;-47
2024/01/29 01:36:41;;;;;;;31.90;17.20;;;;;;;2.24;96.98;101061.88;108037;1306;22269;-46
2024/01/29 01:39:08;;;;;;;32.90;17.20;;;;;;;2.25;97.09;101064.13;108036;1289;23163;-48
2024/01/29 01:41:33;;;;;;;34.60;17.10;;;;;;;2.23;97.07;101070.17;108028;1307;22531;-46
2024/01/29 01:43:59;;;;;;;38.60;17.40;;;;;;;2.23;97.16;101074.33;108055;1306;22258;-45
2024/01/29 01:46:24;;;;;;;34.60;18.00;;;;;;;2.23;97.17;101073.64;108027;1306;22244;-49
2024/01/29 01:48:51;;;;;;;36.80;17.50;;;;;;;2.20;96.93;101074.66;108039;1306;22227;-45
2024/01/29 01:51:18;;;;;;;32.70;16.80;;;;;;;2.18;96.86;101070.30;108062;1289;22485;-48
2024/01/29 01:53:44;;;;;;;36.00;17.80;;;;;;;2.17;96.88;101069.45;108080;1306;22990;-47
2024/01/29 01:56:10;;;;;;;36.40;17.70;;;;;;;2.16;96.98;101070.30;108060;1306;22268;-46
2024/01/29 01:58:36;;;;;;;33.50;17.50;;;;;;;2.15;97.21;101066.84;108073;1288;22239;-48
2024/01/29 02:01:01;;;;;;;35.80;17.90;;;;;;;2.12;96.96;101066.63;108072;1288;23065;-45
2024/01/29 02:03:28;;;;;;;35.00;18.10;;;;;;;2.10;96.95;101065.58;108068;1289;22235;-44
2024/01/29 02:05:53;;;;;;;36.30;18.10;;;;;;;2.09;97.09;101065.38;108037;1306;22225;-44
2024/01/29 02:08:19;;;;;;;39.10;18.30;;;;;;;2.06;97.14;101066.41;108063;1306;22401;-46
2024/01/29 02:10:45;;;;;;;39.00;17.60;;;;;;;2.04;97.17;101064.33;108038;1306;22383;-47
2024/01/29 02:13:11;;;;;;;37.00;18.30;;;;;;;2.04;97.27;101061.73;108028;1306;22239;-46
2024/01/29 02:15:36;;;;;;;36.70;18.90;;;;;;;2.00;97.21;101060.64;108037;1306;22417;-48
2024/01/29 02:18:01;;;;;;;38.10;18.00;;;;;;;1.95;97.25;101068.91;108072;1289;23127;-45
2024/01/29 02:20:27;;;;;;;38.60;19.10;;;;;;;1.95;97.48;101065.80;108039;1306;23047;-45
2024/01/29 02:22:52;;;;;;;29.10;16.90;;;;;;;1.95;97.58;101063.73;108041;1306;22336;-45
2024/01/29 02:25:17;;;;;;;34.00;17.90;;;;;;;1.92;97.59;101064.23;108032;1298;22228;-46
2024/01/29 02:27:42;;;;;;;37.10;17.80;;;;;;;1.91;97.56;101068.20;108065;1289;22598;-45
2024/01/29 02:30:09;;;;;;;34.30;18.10;;;;;;;1.92;97.59;101065.27;108060;1306;22184;-49
2024/01/29 02:32:34;;;;;;;37.40;19.00;;;;;;;1.91;97.63;101061.96;108072;1282;22143;-46
2024/01/29 02:34:59;;;;;;;36.40;18.70;;;;;;;1.90;97.75;101059.70;108059;1288;22445;-45
2024/01/29 02:37:24;;;;;;;37.30;18.40;;;;;;;1.89;97.84;101060.23;108058;1289;22423;-44
2024/01/29 02:39:52;;;;;;;33.10;18.50;;;;;;;1.89;97.87;101064.20;108040;1288;22520;-45
2024/01/29 02:43:54;;;;;;;39.70;19.40;;;;;;;1.90;97.90;101057.80;106904;1304;545243;-47
2024/01/29 02:46:19;;;;;;;31.90;17.80;;;;;;;1.84;98.01;101057.23;107282;1302;22259;-44
2024/01/29 02:48:46;;;;;;;38.30;19.30;;;;;;;1.79;97.92;101053.04;107289;1313;22249;-43
2024/01/29 02:51:11;;;;;;;35.60;19.40;;;;;;;1.78;98.01;101054.23;107288;1313;23145;-45
2024/01/29 02:53:36;;;;;;;37.40;18.00;;;;;;;1.78;98.15;101051.64;107531;1310;22357;-45
2024/01/29 02:56:02;;;;;;;36.70;18.80;;;;;;;1.72;98.24;101049.70;107422;1309;152791;-47
2024/01/29 02:58:29;;;;;;;37.60;19.40;;;;;;;1.73;98.13;101053.16;107779;1288;22456;-47
2024/01/29 03:00:54;;;;;;;34.00;18.50;;;;;;;1.69;98.25;101048.46;107778;1288;22408;-50
2024/01/29 03:03:20;;;;;;;36.80;19.70;;;;;;;1.66;98.30;101045.33;107784;1308;22527;-48
2024/01/29 03:05:45;;;;;;;33.50;17.80;;;;;;;1.65;98.40;101041.86;107781;1308;22261;-46
2024/01/29 03:08:11;;;;;;;37.00;19.40;;;;;;;1.63;98.51;101040.63;107790;1288;22251;-48
2024/01/29 03:10:36;;;;;;;38.40;18.40;;;;;;;1.63;98.48;101041.66;107759;1297;22492;-48
2024/01/29 03:13:01;;;;;;;41.20;19.10;;;;;;;1.60;98.50;101041.28;107761;1299;23203;-48
2024/01/29 03:15:26;;;;;;;35.80;19.10;;;;;;;1.56;98.63;101037.96;107790;1286;22287;-49
2024/01/29 03:17:52;;;;;;;37.70;19.70;;;;;;;1.56;98.67;101031.89;107753;1308;22504;-49
2024/01/29 03:20:17;;;;;;;36.00;19.10;;;;;;;1.58;98.71;101033.31;107782;1288;23273;-47
2024/01/29 03:22:42;;;;;;;41.20;20.10;;;;;;;1.55;98.75;101028.95;107768;1308;22250;-50
2024/01/29 03:25:08;;;;;;;35.90;19.00;;;;;;;1.55;98.64;101027.75;107787;1284;22447;-46
2024/01/29 03:27:33;;;;;;;36.40;18.40;;;;;;;1.55;98.81;101031.55;107773;1289;22276;-47
2024/01/29 03:29:58;;;;;;;34.60;18.20;;;;;;;1.54;98.92;101031.55;107780;1308;22469;-47
2024/01/29 03:32:24;;;;;;;38.10;19.60;;;;;;;1.53;98.93;101030.15;107788;1308;23029;-47
2024/01/29 03:34:49;;;;;;;34.80;18.40;;;;;;;1.52;98.91;101029.45;107781;1305;22321;-46
2024/01/29 03:37:14;;;;;;;38.80;19.80;;;;;;;1.51;98.70;101024.25;107802;1308;22443;-47
2024/01/29 03:39:39;;;;;;;35.20;19.20;;;;;;;1.48;98.75;101024.05;107775;1308;22275;-46
2024/01/29 03:42:05;;;;;;;35.30;19.10;;;;;;;1.42;98.92;101019.33;107745;1308;23070;-47
2024/01/29 03:44:30;;;;;;;35.10;17.70;;;;;;;1.37;99.07;101017.38;107767;1288;22495;-46
2024/01/29 03:46:55;;;;;;;38.90;18.20;;;;;;;1.32;99.25;101012.14;107774;1297;23164;-44
2024/01/29 03:49:21;;;;;;;31.50;17.60;;;;;;;1.32;99.30;101009.89;107765;1301;22464;-47
2024/01/29 03:51:46;;;;;;;32.20;16.90;;;;;;;1.33;99.29;101001.96;107769;1298;22401;-44
2024/01/29 03:54:11;;;;;;;31.10;17.10;;;;;;;1.32;99.28;101000.75;107739;1308;22594;-45
2024/01/29 03:56:37;;;;;;;25.50;16.20;;;;;;;1.29;99.41;100995.70;107706;1286;22475;-47
2024/01/29 03:59:02;;;;;;;27.80;16.60;;;;;;;1.29;99.43;100988.95;107709;1308;22571;-45
2024/01/29 04:01:28;;;;;;;32.50;17.10;;;;;;;1.25;99.48;100986.85;107665;1286;22518;-44
2024/01/29 04:03:54;;;;;;;31.70;16.50;;;;;;;1.24;99.54;100982.86;107695;1291;22273;-45
2024/01/29 04:06:19;;;;;;;30.30;17.30;;;;;;;1.19;99.67;100980.73;107693;1309;22399;-45
2024/01/29 04:08:45;;;;;;;29.50;16.50;;;;;;;1.18;99.80;100980.20;107713;1291;22254;-48
2024/01/29 04:11:10;;;;;;;29.80;16.60;;;;;;;1.14;99.93;100972.40;107686;1309;22279;-48
2024/01/29 04:13:35;;;;;;;29.90;16.60;;;;;;;1.17;99.92;100967.25;107681;1309;23045;-49
2024/01/29 04:16:01;;;;;;;28.60;16.20;;;;;;;1.18;99.86;100968.46;107657;1302;25106;-46
2024/01/29 04:18:26;;;;;;;32.40;17.30;;;;;;;1.17;99.95;100974.50;107714;1289;24274;-47
2024/01/29 04:20:52;;;;;;;28.40;15.70;;;;;;;1.16;99.96;100980.01;107721;1309;23098;-46
2024/01/29 04:23:17;;;;;;;30.70;15.60;;;;;;;1.12;99.98;100987.75;107712;1309;23171;-46
2024/01/29 04:25:42;;;;;;;28.70;16.30;;;;;;;1.12;99.91;100992.25;107683;1289;22302;-46
2024/01/29 04:28:08;;;;;;;28.60;16.50;;;;;;;1.13;99.98;100998.13;107699;1309;22275;-48
2024/01/29 04:30:33;;;;;;;26.30;15.20;;;;;;;1.11;99.96;101000.02;107700;1309;22268;-47
2024/01/29 04:32:58;;;;;;;32.00;16.60;;;;;;;1.11;99.96;100997.95;107680;1309;22391;-45
2024/01/29 04:35:24;;;;;;;29.70;17.10;;;;;;;1.10;99.98;100996.36;107727;1288;22420;-44
2024/01/29 04:37:49;;;;;;;31.10;17.70;;;;;;;1.13;99.97;100993.80;107688;1291;22272;-45
2024/01/29 04:40:14;;;;;;;29.80;17.40;;;;;;;1.07;99.98;100989.60;107709;1291;22967;-44
2024/01/29 04:42:39;;;;;;;32.80;17.70;;;;;;;1.03;100.00;100988.00;107717;1287;22218;-44
2024/01/29 04:45:05;;;;;;;29.00;16.30;;;;;;;1.06;99.99;100988.72;107709;1290;22276;-44
2024/01/29 04:47:30;;;;;;;27.80;16.30;;;;;;;1.04;100.00;100990.26;107726;1296;22218;-46
2024/01/29 04:49:56;;;;;;;33.30;17.80;;;;;;;1.06;100.00;100996.66;107717;1291;22322;-45
2024/01/29 04:52:21;;;;;;;34.90;19.70;;;;;;;1.08;100.00;100994.45;107703;1291;22268;-47
2024/01/29 04:54:46;;;;;;;31.30;18.60;;;;;;;1.09;100.00;100994.81;107692;1309;22246;-47
2024/01/29 04:57:12;;;;;;;30.40;17.10;;;;;;;1.07;100.00;100988.40;107729;1290;22481;-49
2024/01/29 04:59:37;;;;;;;32.00;17.90;;;;;;;1.09;100.00;100993.08;107701;1286;23140;-48
2024/01/29 05:02:02;;;;;;;31.50;17.20;;;;;;;1.11;99.97;100994.30;107697;1309;22336;-49
2024/01/29 05:04:28;;;;;;;34.20;16.80;;;;;;;1.13;99.93;100987.77;107726;1289;23021;-49
2024/01/29 05:06:53;;;;;;;32.10;17.60;;;;;;;1.12;99.84;100985.69;107709;1309;22413;-48
2024/01/29 05:09:19;;;;;;;31.80;18.30;;;;;;;1.13;99.82;100980.15;107730;1289;22170;-46
2024/01/29 05:11:44;;;;;;;31.00;17.00;;;;;;;1.13;99.90;100977.58;107697;1291;22238;-47
2024/01/29 05:14:09;;;;;;;30.70;17.60;;;;;;;1.14;99.77;100972.39;107709;1309;22255;-48
2024/01/29 05:16:35;;;;;;;29.60;17.80;;;;;;;1.13;99.75;100968.59;107707;1288;23221;-49
2024/01/29 05:19:00;;;;;;;30.30;16.60;;;;;;;1.08;99.74;100964.05;107713;1309;22236;-48
2024/01/29 05:21:25;;;;;;;31.40;16.90;;;;;;;1.09;99.85;100968.88;107678;1309;22398;-46
2024/01/29 05:23:51;;;;;;;33.20;17.30;;;;;;;1.10;99.80;100971.83;107707;1291;22272;-45
2024/01/29 05:26:16;;;;;;;30.70;17.20;;;;;;;1.09;99.90;100967.17;107724;1288;23126;-50
2024/01/29 05:28:41;;;;;;;29.30;16.60;;;;;;;1.08;99.95;100963.18;107689;1309;22138;-46
2024/01/29 05:31:06;;;;;;;33.00;16.90;;;;;;;1.06;99.98;100959.70;107732;1289;22442;-49
2024/01/29 05:33:32;;;;;;;32.20;17.50;;;;;;;1.03;100.00;100960.20;107715;1309;23294;-49
2024/01/29 05:35:57;;;;;;;24.80;16.50;;;;;;;1.05;100.00;100968.85;107695;1309;23168;-49
2024/01/29 05:38:22;;;;;;;27.60;16.30;;;;;;;1.04;100.00;100972.46;107710;1291;22220;-47
2024/01/29 05:40:47;;;;;;;30.90;17.00;;;;;;;1.08;100.00;100976.30;107697;1288;22257;-46
2024/01/29 05:43:13;;;;;;;26.50;16.10;;;;;;;1.10;99.99;100975.30;107711;1309;22237;-49
2024/01/29 05:45:38;;;;;;;29.70;17.00;;;;;;;1.09;99.99;100971.48;107735;1291;23026;-48
2024/01/29 05:48:07;;;;;;;27.00;16.70;;;;;;;1.09;99.96;100966.83;107695;1290;22249;-48
2024/01/29 05:50:32;;;;;;;29.40;16.30;;;;;;;1.11;99.99;100959.93;107724;1309;22262;-44
2024/01/29 05:52:57;;;;;;;26.40;15.80;;;;;;;1.10;99.99;100957.66;107723;1291;22249;-48
2024/01/29 05:55:23;;;;;;;27.30;15.50;;;;;;;1.07;99.98;100960.07;107688;1309;22413;-47
2024/01/29 05:57:49;;;;;;;29.40;15.80;;;;;;;1.04;99.96;100956.06;107694;1289;22327;-46
2024/01/29 06:00:15;;;;;;;25.70;14.70;;;;;;;1.01;99.99;100952.76;107685;1309;22403;-46
2024/01/29 06:02:43;;;;;;;29.70;15.80;;;;;;;0.97;100.00;100956.85;107719;1309;22248;-45
2024/01/29 06:05:11;;;;;;;22.80;14.30;;;;;;;0.98;100.00;100958.06;107712;1309;23226;-44
2024/01/29 06:07:36;;;;;;;;;;;;;;;0.95;100.00;100953.03;107744;1304;22475;-46
2024/01/29 06:10:02;;;;;;;26.70;15.10;;;;;;;0.96;100.00;100951.48;107724;1288;22310;-48
2024/01/29 06:12:27;;;;;;;26.10;14.80;;;;;;;0.94;100.00;100954.23;107738;1294;22300;-48
2024/01/29 06:14:52;;;;;;;27.00;15.10;;;;;;;0.94;100.00;100955.25;107714;1309;22473;-47
2024/01/29 06:17:17;;;;;;;24.60;15.20;;;;;;;0.91;100.00;100954.38;107730;1289;23204;-44
2024/01/29 06:19:43;;;;;;;26.30;16.20;;;;;;;0.87;100.00;100952.24;107690;1309;22903;-45
2024/01/29 06:22:08;;;;;;;29.80;15.40;;;;;;;0.92;100.00;100950.92;107723;1288;22263;-49
2024/01/29 06:24:33;;;;;;;35.40;16.20;;;;;;;0.91;100.00;100953.50;107732;1288;23111;-45
2024/01/29 06:26:58;;;;;;;30.20;15.90;;;;;;;0.92;100.00;100957.32;107716;1287;22246;-45
2024/01/29 06:29:24;;;;;;;32.10;15.70;;;;;;;0.91;100.00;100953.84;107716;1288;22527;-46
2024/01/29 06:31:49;;;;;;;29.40;16.90;;;;;;;0.92;100.00;100955.24;107742;1288;22434;-45
2024/01/29 06:34:14;;;;;;;29.00;16.20;;;;;;;0.92;100.00;100953.16;107705;1309;22705;-47
2024/01/29 06:36:39;;;;;;;28.20;16.20;;;;;;;0.95;100.00;100949.91;107717;1289;23538;-48
2024/01/29 06:39:07;;;;;;;30.30;17.50;;;;;;;0.97;100.00;100948.21;107711;1309;22234;-47
2024/01/29 06:41:32;;;;;;;27.50;16.60;;;;;;;0.97;100.00;100949.59;107687;1288;22349;-48
2024/01/29 06:43:57;;;;;;;30.10;16.60;;;;;;;1.00;100.00;100954.46;107702;1309;22255;-46
2024/01/29 06:46:23;;;;;;;34.60;16.60;;;;;;;1.00;100.00;100952.05;107732;1309;22413;-47
2024/01/29 06:48:48;;;;;;;34.10;16.50;;;;;;;1.01;100.00;100954.48;107723;1291;22559;-47
2024/01/29 06:51:15;;;;;;;32.10;16.10;;;;;;;1.01;100.00;100948.95;107714;1290;22410;-47
2024/01/29 06:53:41;;;;;;;31.40;16.20;;;;;;;1.01;100.00;100947.04;107725;1288;22280;-46
2024/01/29 06:56:07;;;;;;;34.70;16.80;;;;;;;1.04;100.00;100942.41;107714;1288;22422;-48
2024/01/29 06:58:33;;;;;;;31.00;16.50;;;;;;;1.05;100.00;100941.91;107719;1291;22401;-45
2024/01/29 07:01:01;;;;;;;30.40;17.60;;;;;;;1.07;100.00;100937.27;107731;1303;22420;-50
2024/01/29 07:03:27;;;;;;;30.20;16.30;;;;;;;1.04;100.00;100931.36;107726;1290;22487;-49
2024/01/29 07:05:52;;;;;;;30.00;17.00;;;;;;;1.02;100.00;100930.48;107725;1309;23361;-49
2024/01/29 07:08:17;;;;;;;28.70;16.60;;;;;;;1.01;100.00;100927.34;107706;1287;22261;-51
2024/01/29 07:10:44;;;;;;;30.70;16.20;;;;;;;1.04;100.00;100928.26;107721;1291;22322;-46
2024/01/29 07:13:10;;;;;;;29.80;16.30;;;;;;;1.04;100.00;100924.45;107710;1289;22265;-49
2024/01/29 07:15:35;;;;;;;27.70;15.60;;;;;;;1.04;100.00;100925.14;107713;1288;22249;-47
2024/01/29 07:18:00;;;;;;;28.50;15.10;;;;;;;1.05;100.00;100925.33;107700;1291;22253;-49
2024/01/29 07:20:29;;;;;;;28.10;15.60;;;;;;;1.09;100.00;100925.02;107692;1309;22468;-47
2024/01/29 07:22:55;;;;;;;34.00;17.10;;;;;;;1.11;100.00;100924.51;107796;1308;22979;-46
2024/01/29 07:25:21;;;;;;;31.80;16.70;;;;;;;1.11;100.00;100925.04;107771;1308;22251;-47
2024/01/29 07:27:46;;;;;;;29.30;16.60;;;;;;;1.14;100.00;100921.43;107756;1308;22478;-47
2024/01/29 07:30:12;;;;;;;31.80;17.40;;;;;;;1.14;100.00;100917.47;107779;1308;23175;-45
2024/01/29 07:32:38;;;;;;;33.90;17.90;;;;;;;1.15;100.00;100919.55;107845;1308;22431;-48
2024/01/29 07:35:04;;;;;;;32.70;17.40;;;;;;;1.18;100.00;100919.73;107830;1308;22407;-47
2024/01/29 07:37:30;;;;;;;29.20;17.20;;;;;;;1.20;100.00;100922.18;107814;1288;22474;-46
2024/01/29 07:39:55;;;;;;;33.70;17.40;;;;;;;1.22;100.00;100920.30;107804;1308;23191;-44
2024/01/29 07:42:21;;;;;;;31.80;17.60;;;;;;;1.25;100.00;100926.38;107801;1288;22401;-45
2024/01/29 07:44:48;;;;;;;32.80;17.60;;;;;;;1.28;100.00;100930.02;107804;1300;22387;-48
2024/01/29 07:47:14;;;;;;;29.20;16.20;;;;;;;1.28;100.00;100936.77;107824;1308;22772;-46
2024/01/29 07:49:39;;;;;;;29.00;17.40;;;;;;;1.29;100.00;100931.77;107812;1291;23384;-48
2024/01/29 07:52:05;;;;;;;32.10;17.20;;;;;;;1.30;100.00;100928.84;107816;1308;22243;-47
2024/01/29 07:54:30;;;;;;;29.60;17.20;;;;;;;1.36;100.00;100923.70;107811;1308;22519;-48
2024/01/29 07:56:55;;;;;;;42.60;19.30;;;;;;;1.38;100.00;100928.55;107795;1291;22335;-46
2024/01/29 07:59:20;;;;;;;30.10;16.80;;;;;;;1.40;100.00;100932.38;107792;1291;24399;-51
2024/01/29 08:01:46;;;;;;;36.20;17.10;;;;;;;1.44;99.98;100938.28;107789;1308;23226;-46
2024/01/29 08:04:11;;;;;;;32.40;17.40;;;;;;;1.47;99.96;100938.33;107831;1291;22240;-51
2024/01/29 08:06:37;;;;;;;33.00;18.40;;;;;;;1.54;99.99;100935.44;107828;1285;22937;-45
2024/01/29 08:09:04;;;;;;;36.30;18.50;;;;;;;1.62;99.95;100937.23;107826;1291;22278;-49
2024/01/29 08:11:30;;;;;;;35.70;18.70;;;;;;;1.67;99.87;100935.36;107811;1289;22225;-48
2024/01/29 08:13:56;;;;;;;36.20;18.80;;;;;;;1.74;99.98;100937.83;107814;1308;23280;-48
2024/01/29 08:16:21;;;;;;;38.20;19.30;;;;;;;1.82;99.78;100932.01;107805;1285;22267;-46
2024/01/29 08:18:47;;;;;;;37.20;19.40;;;;;;;1.88;99.50;100933.09;107790;1284;22926;-45
2024/01/29 08:21:12;;;;;;;39.60;19.40;;;;;;;1.95;99.47;100941.44;107786;1308;23132;-46
2024/01/29 08:23:37;;;;;;;33.90;17.80;;;;;;;1.96;98.85;100944.04;107788;1288;22477;-46
2024/01/29 08:26:03;;;;;;;37.80;19.00;;;;;;;2.01;98.71;100947.71;107795;1308;22260;-47
2024/01/29 08:28:28;;;;;;;32.40;18.20;;;;;;;1.99;98.22;100947.69;107828;1308;23126;-46
2024/01/29 08:30:55;;;;;;;36.80;18.20;;;;;;;2.04;98.51;100948.41;107795;1308;23278;-46
2024/01/29 08:33:20;;;;;;;30.60;17.20;;;;;;;2.09;98.65;100951.05;107804;1308;22065;-47
2024/01/29 08:35:45;;;;;;;36.80;17.80;;;;;;;2.15;98.60;100945.88;107800;1308;22970;-48
2024/01/29 08:38:11;;;;;;;35.70;18.70;;;;;;;2.19;98.51;100945.05;107783;1308;22268;-47
2024/01/29 08:40:37;;;;;;;35.30;18.80;;;;;;;2.24;98.15;100951.13;107830;1291;22389;-47
2024/01/29 08:43:03;;;;;;;34.80;18.80;;;;;;;2.30;98.02;100948.90;107783;1301;23243;-46
2024/01/29 08:45:28;;;;;;;32.30;17.00;;;;;;;2.36;98.37;100947.37;107889;1306;22467;-47
2024/01/29 08:47:54;;;;;;;27.10;16.20;;;;;;;2.34;97.40;100949.09;107900;1307;22407;-46
2024/01/29 08:50:19;;;;;;;29.60;16.00;;;;;;;2.40;97.36;100948.79;107906;1304;22433;-45
2024/01/29 08:52:44;;;;;;;30.20;16.70;;;;;;;2.48;97.64;100942.94;107808;1293;22430;-46
2024/01/29 08:55:11;;;;;;;29.80;16.70;;;;;;;2.52;96.54;100945.55;107874;1291;22285;-49
2024/01/29 08:57:36;;;;;;;31.80;17.20;;;;;;;2.82;96.88;100951.70;107902;1285;22540;-49
2024/01/29 09:00:03;;;;;;;38.40;19.80;;;;;;;3.30;95.03;100954.07;107918;1307;23172;-46
2024/01/29 09:02:31;;;;;;;27.50;16.10;;;;;;;3.85;93.48;100956.15;107931;1285;22440;-45
2024/01/29 09:05:00;;;;;;;24.60;15.90;;;;;;;4.33;89.77;100960.73;107886;1288;22449;-47
2024/01/29 09:07:25;;;;;;;24.60;14.70;;;;;;;4.85;88.06;100959.85;107872;1307;22384;-46
2024/01/29 09:09:50;;;;;;;23.50;13.50;;;;;;;5.29;86.98;100956.29;107854;1285;22913;-47
2024/01/29 09:12:16;;;;;;;23.00;13.80;;;;;;;5.49;85.33;100957.70;107773;1308;22226;-44
2024/01/29 09:14:41;;;;;;;32.90;16.60;;;;;;;5.72;85.19;100964.14;107763;1308;22450;-47
2024/01/29 09:17:07;;;;;;;28.80;15.30;;;;;;;5.88;84.68;100966.08;107791;1297;23280;-46
2024/01/29 09:19:32;;;;;;;29.40;15.50;;;;;;;5.97;84.35;100964.11;107798;1288;22370;-45
2024/01/29 09:21:57;;;;;;;27.70;15.00;;;;;;;5.80;83.20;100966.84;107779;1298;22345;-45
2024/01/29 09:24:23;;;;;;;22.60;13.30;;;;;;;5.59;81.99;100971.73;107777;1308;22437;-48
2024/01/29 09:26:48;;;;;;;24.10;13.60;;;;;;;5.46;83.56;100969.55;107832;1308;22260;-44
2024/01/29 09:29:13;;;;;;;25.80;14.60;;;;;;;5.26;83.46;100967.27;107799;1308;22469;-44
2024/01/29 09:31:41;;;;;;;23.70;13.80;;;;;;;5.08;83.74;100964.94;107814;1303;22275;-46
2024/01/29 09:34:06;;;;;;;28.70;16.80;;;;;;;4.93;84.86;100963.27;107858;1306;23250;-46
2024/01/29 09:36:34;;;;;;;28.30;15.70;;;;;;;4.78;85.37;100960.05;107781;1300;23008;-47
2024/01/29 09:38:59;;;;;;;30.60;14.70;;;;;;;4.65;85.38;100954.55;107778;1292;22476;-45
2024/01/29 09:41:25;;;;;;;25.70;14.90;;;;;;;4.56;86.22;100952.85;107805;1301;23288;-46
2024/01/29 09:43:53;;;;;;;23.90;14.50;;;;;;;4.50;86.93;100951.31;107822;1289;23130;-45
2024/01/29 09:46:19;;;;;;;25.20;15.00;;;;;;;4.45;87.37;100947.52;107801;1308;23597;-47
2024/01/29 09:48:46;;;;;;;27.10;14.80;;;;;;;4.36;87.28;100946.86;107819;1289;22523;-44
2024/01/29 09:51:14;;;;;;;25.40;14.10;;;;;;;4.28;87.36;100946.88;107765;1300;22668;-47
2024/01/29 09:53:39;;;;;;;28.20;16.10;;;;;;;4.26;87.80;100945.50;107790;1297;22203;-46
2024/01/29 09:56:05;;;;;;;30.60;16.00;;;;;;;4.24;87.99;100946.88;107830;1300;23000;-46
2024/01/29 09:58:32;;;;;;;26.90;14.70;;;;;;;4.21;88.15;100946.73;107894;1307;23125;-46
2024/01/29 10:00:59;;;;;;;28.00;15.10;;;;;;;4.18;88.22;100949.86;107818;1300;22431;-47
2024/01/29 10:03:30;;;;;;;27.10;14.00;;;;;;;4.18;88.48;100950.55;107778;1300;23249;-45
2024/01/29 10:05:56;;;;;;;30.60;16.50;;;;;;;4.17;88.53;100949.51;107829;1300;23021;-45
2024/01/29 10:08:24;;;;;;;27.80;15.10;;;;;;;4.17;88.78;100944.83;107817;1308;22495;-44
2024/01/29 10:10:51;;;;;;;28.10;14.30;;;;;;;4.17;88.80;100941.70;107788;1291;22240;-46
2024/01/29 10:13:16;;;;;;;28.70;14.50;;;;;;;4.18;88.75;100935.80;107821;1308;22308;-45
2024/01/29 10:15:43;;;;;;;29.00;14.90;;;;;;;4.20;88.73;100932.84;107806;1308;22460;-45
2024/01/29 10:18:12;;;;;;;25.60;14.00;;;;;;;4.22;88.07;100933.87;107804;1308;22244;-45
2024/01/29 10:20:38;;;;;;;24.40;13.20;;;;;;;4.22;87.89;100930.58;107799;1291;22296;-47
2024/01/29 10:23:04;;;;;;;28.00;14.90;;;;;;;4.28;88.42;100922.39;107822;1290;22279;-46
2024/01/29 10:25:31;;;;;;;26.60;13.90;;;;;;;4.35;88.93;100920.29;107787;1304;22522;-50
2024/01/29 10:28:12;;;;;;;25.50;13.50;;;;;;;4.42;89.39;100918.86;107786;1285;23244;-48
2024/01/29 10:30:39;;;;;;;26.50;13.90;;;;;;;4.45;88.59;100919.04;107751;1308;22244;-45
2024/01/29 10:33:05;;;;;;;25.90;13.70;;;;;;;4.47;87.83;100916.94;107840;1289;22464;-48
2024/01/29 10:35:30;;;;;;;27.70;12.90;;;;;;;4.49;87.34;100911.55;107864;1307;23267;-47
2024/01/29 10:38:01;;;;;;;27.70;13.40;;;;;;;4.53;87.42;100908.39;107863;1307;22769;-47
2024/01/29 10:40:27;;;;;;;33.40;15.70;;;;;;;4.58;87.83;100909.25;107878;1288;22411;-45
2024/01/29 10:42:53;;;;;;;26.00;14.50;;;;;;;4.59;87.46;100904.73;107877;1288;23296;-45
2024/01/29 10:45:19;;;;;;;30.80;14.30;;;;;;;4.62;87.79;100899.32;107799;1292;22434;-45
2024/01/29 10:47:51;;;;;;;32.30;14.60;;;;;;;4.67;88.22;100898.27;107770;1300;23629;-45
2024/01/29 10:50:18;;;;;;;26.40;13.60;;;;;;;4.70;87.68;100905.89;107784;1307;22358;-47
2024/01/29 10:52:47;;;;;;;24.30;13.60;;;;;;;4.70;86.99;100906.41;107771;1301;22472;-47
2024/01/29 10:55:16;;;;;;;27.50;14.60;;;;;;;4.72;87.22;100909.70;107816;1288;22309;-48
2024/01/29 10:57:46;;;;;;;26.10;13.60;;;;;;;4.73;87.20;100910.21;107581;1287;23154;-45
2024/01/29 11:00:14;;;;;;;25.70;13.70;;;;;;;4.72;86.09;100912.13;107523;1298;22332;-45
2024/01/29 11:02:40;;;;;;;25.00;14.10;;;;;;;4.77;86.76;100913.15;107757;1301;23342;-47